sensor_id;sensor_type;location;lat;lon;timestamp;pressure;altitude;pressure_sealevel;temperature;humidity
5350;BME280;2697;42.144;24.794;2022-09-06T00:02:24;156928.34;;;16.88;100.00
5350;BME280;2697;42.144;24.794;2022-09-06T00:04:49;156891.28;;;16.73;100.00
5350;BME280;2697;42.144;24.794;2022-09-06T00:07:15;156883.34;;;16.70;100.00
5350;BME280;2697;42.144;24.794;2022-09-06T00:09:40;156866.09;;;16.64;100.00
5350;BME280;2697;42.144;24.794;2022-09-06T00:12:06;156848.91;;;16.57;100.00
5350;BME280;2697;42.144;24.794;2022-09-06T00:14:31;156863.44;;;16.63;100.00
5350;BME280;2697;42.144;24.794;2022-09-06T00:16:57;156834.34;;;16.51;100.00
5350;BME280;2697;42.144;24.794;2022-09-06T00:19:22;156830.38;;;16.50;100.00
5350;BME280;2697;42.144;24.794;2022-09-06T00:21:48;156856.84;;;16.60;100.00
5350;BME280;2697;42.144;24.794;2022-09-06T00:24:13;156811.84;;;16.43;100.00
5350;BME280;2697;42.144;24.794;2022-09-06T00:26:38;156838.31;;;16.53;100.00
5350;BME280;2697;42.144;24.794;2022-09-06T00:29:04;156834.34;;;16.51;100.00
5350;BME280;2697;42.144;24.794;2022-09-06T00:31:29;156810.53;;;16.42;100.00
5350;BME280;2697;42.144;24.794;2022-09-06T00:33:55;156801.31;;;16.39;100.00
5350;BME280;2697;42.144;24.794;2022-09-06T00:36:21;156799.97;;;16.38;100.00
5350;BME280;2697;42.144;24.794;2022-09-06T00:38:46;156766.88;;;16.25;100.00
5350;BME280;2697;42.144;24.794;2022-09-06T00:41:13;156760.28;;;16.23;100.00
5350;BME280;2697;42.144;24.794;2022-09-06T00:43:40;156749.66;;;16.19;100.00
5350;BME280;2697;42.144;24.794;2022-09-06T00:46:08;156748.34;;;16.18;100.00
5350;BME280;2697;42.144;24.794;2022-09-06T00:48:36;156740.44;;;16.15;100.00
5350;BME280;2697;42.144;24.794;2022-09-06T00:51:04;156749.66;;;16.19;100.00
5350;BME280;2697;42.144;24.794;2022-09-06T00:53:31;156780.13;;;16.31;100.00
5350;BME280;2697;42.144;24.794;2022-09-06T00:55:57;156790.69;;;16.35;100.00
5350;BME280;2697;42.144;24.794;2022-09-06T00:58:24;156803.94;;;16.40;100.00
5350;BME280;2697;42.144;24.794;2022-09-06T01:00:49;156798.59;;;16.38;100.00
5350;BME280;2697;42.144;24.794;2022-09-06T01:03:15;156833.03;;;16.51;100.00
5350;BME280;2697;42.144;24.794;2022-09-06T01:14:10;156798.59;;;16.38;100.00
5350;BME280;2697;42.144;24.794;2022-09-06T01:17:40;156782.78;;;16.32;100.00
5350;BME280;2697;42.144;24.794;2022-09-06T01:25:24;156747.03;;;16.18;100.00
5350;BME280;2697;42.144;24.794;2022-09-06T01:31:08;156777.50;;;16.30;100.00
5350;BME280;2697;42.144;24.794;2022-09-06T01:39:01;156818.47;;;16.45;100.00
5350;BME280;2697;42.144;24.794;2022-09-06T01:41:27;156830.38;;;16.50;100.00
5350;BME280;2697;42.144;24.794;2022-09-06T01:43:54;156819.78;;;16.46;100.00
5350;BME280;2697;42.144;24.794;2022-09-06T01:55:50;156778.81;;;16.30;100.00
5350;BME280;2697;42.144;24.794;2022-09-06T02:00:47;156770.84;;;16.27;100.00
5350;BME280;2697;42.144;24.794;2022-09-06T02:03:58;156769.53;;;16.27;100.00
5350;BME280;2697;42.144;24.794;2022-09-06T02:06:29;156757.66;;;16.22;100.00
5350;BME280;2697;42.144;24.794;2022-09-06T02:09:02;156744.41;;;16.17;100.00
5350;BME280;2697;42.144;24.794;2022-09-06T02:11:34;156739.13;;;16.15;100.00
5350;BME280;2697;42.144;24.794;2022-09-06T02:14:05;156752.38;;;16.20;100.00
5350;BME280;2697;42.144;24.794;2022-09-06T02:16:32;156721.91;;;16.08;100.00
5350;BME280;2697;42.144;24.794;2022-09-06T02:19:31;156715.31;;;16.06;100.00
5350;BME280;2697;42.144;24.794;2022-09-06T02:21:58;156699.44;;;16.00;100.00
5350;BME280;2697;42.144;24.794;2022-09-06T02:24:29;156688.88;;;15.95;100.00
5350;BME280;2697;42.144;24.794;2022-09-06T02:26:55;156708.72;;;16.03;100.00
5350;BME280;2697;42.144;24.794;2022-09-06T02:29:21;156695.47;;;15.98;100.00
5350;BME280;2697;42.144;24.794;2022-09-06T02:32:23;156708.72;;;16.03;100.00
5350;BME280;2697;42.144;24.794;2022-09-06T02:34:51;156703.44;;;16.01;100.00
5350;BME280;2697;42.144;24.794;2022-09-06T02:37:17;156716.63;;;16.06;100.00
5350;BME280;2697;42.144;24.794;2022-09-06T02:39:43;156720.59;;;16.08;100.00
5350;BME280;2697;42.144;24.794;2022-09-06T02:42:10;156706.06;;;16.02;100.00
5350;BME280;2697;42.144;24.794;2022-09-06T02:44:37;156707.41;;;16.03;100.00
5350;BME280;2697;42.144;24.794;2022-09-06T02:47:02;156757.66;;;16.22;100.00
5350;BME280;2697;42.144;24.794;2022-09-06T02:49:28;156785.41;;;16.33;100.00
5350;BME280;2697;42.144;24.794;2022-09-06T02:51:54;156790.69;;;16.35;100.00
5350;BME280;2697;42.144;24.794;2022-09-06T02:54:21;156803.94;;;16.40;100.00
5350;BME280;2697;42.144;24.794;2022-09-06T02:56:46;156795.97;;;16.37;100.00
5350;BME280;2697;42.144;24.794;2022-09-06T02:59:12;156751.03;;;16.19;100.00
5350;BME280;2697;42.144;24.794;2022-09-06T03:01:39;156740.44;;;16.15;100.00
5350;BME280;2697;42.144;24.794;2022-09-06T03:04:04;156721.91;;;16.08;100.00
5350;BME280;2697;42.144;24.794;2022-09-06T03:06:30;156721.91;;;16.08;100.00
5350;BME280;2697;42.144;24.794;2022-09-06T03:08:56;156740.44;;;16.15;100.00
5350;BME280;2697;42.144;24.794;2022-09-06T03:11:22;156721.91;;;16.08;100.00
5350;BME280;2697;42.144;24.794;2022-09-06T03:13:47;156727.25;;;16.10;100.00
5350;BME280;2697;42.144;24.794;2022-09-06T03:16:15;156733.84;;;16.13;100.00
5350;BME280;2697;42.144;24.794;2022-09-06T03:18:40;156761.59;;;16.23;100.00
5350;BME280;2697;42.144;24.794;2022-09-06T03:21:05;156711.34;;;16.04;100.00
5350;BME280;2697;42.144;24.794;2022-09-06T03:23:31;156703.44;;;16.01;100.00
5350;BME280;2697;42.144;24.794;2022-09-06T03:25:56;156712.69;;;16.05;100.00
5350;BME280;2697;42.144;24.794;2022-09-06T03:28:22;156724.56;;;16.09;100.00
5350;BME280;2697;42.144;24.794;2022-09-06T03:30:49;156725.88;;;16.10;100.00
5350;BME280;2697;42.144;24.794;2022-09-06T03:33:16;156727.25;;;16.10;100.00
5350;BME280;2697;42.144;24.794;2022-09-06T03:35:53;156711.34;;;16.04;100.00
5350;BME280;2697;42.144;24.794;2022-09-06T03:38:19;156704.75;;;16.02;100.00
5350;BME280;2697;42.144;24.794;2022-09-06T03:40:46;156706.06;;;16.02;100.00
5350;BME280;2697;42.144;24.794;2022-09-06T03:43:13;156690.19;;;15.96;100.00
5350;BME280;2697;42.144;24.794;2022-09-06T03:45:38;156687.56;;;15.95;100.00
5350;BME280;2697;42.144;24.794;2022-09-06T03:48:04;156695.47;;;15.98;100.00
5350;BME280;2697;42.144;24.794;2022-09-06T03:50:29;156679.63;;;15.92;100.00
5350;BME280;2697;42.144;24.794;2022-09-06T03:52:54;156650.50;;;15.81;100.00
5350;BME280;2697;42.144;24.794;2022-09-06T03:55:20;156659.78;;;15.84;100.00
5350;BME280;2697;42.144;24.794;2022-09-06T03:57:45;156647.88;;;15.80;100.00
5350;BME280;2697;42.144;24.794;2022-09-06T04:00:11;156642.59;;;15.78;100.00
5350;BME280;2697;42.144;24.794;2022-09-06T04:02:37;156638.63;;;15.76;100.00
5350;BME280;2697;42.144;24.794;2022-09-06T04:05:02;156669.03;;;15.88;100.00
5350;BME280;2697;42.144;24.794;2022-09-06T04:07:28;156694.16;;;15.98;100.00
5350;BME280;2697;42.144;24.794;2022-09-06T04:09:54;156732.53;;;16.12;100.00
5350;BME280;2697;42.144;24.794;2022-09-06T04:12:19;156669.03;;;15.88;100.00
5350;BME280;2697;42.144;24.794;2022-09-06T04:14:45;156642.59;;;15.78;100.00
5350;BME280;2697;42.144;24.794;2022-09-06T04:17:10;156628.03;;;15.72;100.00
5350;BME280;2697;42.144;24.794;2022-09-06T04:19:36;156666.41;;;15.87;100.00
5350;BME280;2697;42.144;24.794;2022-09-06T04:22:02;156684.91;;;15.94;100.00
5350;BME280;2697;42.144;24.794;2022-09-06T04:24:27;156704.75;;;16.02;100.00
5350;BME280;2697;42.144;24.794;2022-09-06T04:26:53;156703.44;;;16.01;100.00
5350;BME280;2697;42.144;24.794;2022-09-06T04:29:18;156708.72;;;16.03;100.00
5350;BME280;2697;42.144;24.794;2022-09-06T04:31:43;156758.97;;;16.22;100.00
5350;BME280;2697;42.144;24.794;2022-09-06T04:34:09;156833.03;;;16.51;100.00
5350;BME280;2697;42.144;24.794;2022-09-06T04:36:34;156981.25;;;17.08;100.00
5350;BME280;2697;42.144;24.794;2022-09-06T04:39:00;157031.53;;;17.27;100.00
5350;BME280;2697;42.144;24.794;2022-09-06T04:41:25;157059.31;;;17.38;100.00
5350;BME280;2697;42.144;24.794;2022-09-06T04:43:51;157061.97;;;17.39;100.00
5350;BME280;2697;42.144;24.794;2022-09-06T04:46:29;157069.94;;;17.42;100.00
5350;BME280;2697;42.144;24.794;2022-09-06T04:48:55;157085.78;;;17.48;100.00
5350;BME280;2697;42.144;24.794;2022-09-06T04:51:22;157117.59;;;17.60;100.00
5350;BME280;2697;42.144;24.794;2022-09-06T04:53:48;157153.38;;;17.74;100.00
5350;BME280;2697;42.144;24.794;2022-09-06T04:56:16;157206.31;;;17.94;100.00
5350;BME280;2697;42.144;24.794;2022-09-06T04:58:44;157291.09;;;18.27;98.97
5350;BME280;2697;42.144;24.794;2022-09-06T05:01:09;157374.53;;;18.59;97.14
5350;BME280;2697;42.144;24.794;2022-09-06T05:03:35;157524.31;;;19.17;95.62
5350;BME280;2697;42.144;24.794;2022-09-06T05:06:12;157688.75;;;19.80;92.83
5350;BME280;2697;42.144;24.794;2022-09-06T05:08:39;157741.78;;;20.00;91.57
5350;BME280;2697;42.144;24.794;2022-09-06T05:11:06;157749.78;;;20.03;90.91
5350;BME280;2697;42.144;24.794;2022-09-06T05:13:32;157877.16;;;20.52;88.17
5350;BME280;2697;42.144;24.794;2022-09-06T05:16:02;157886.41;;;20.56;87.09
5350;BME280;2697;42.144;24.794;2022-09-06T05:18:28;158169.16;;;21.64;81.14
5350;BME280;2697;42.144;24.794;2022-09-06T05:20:54;158461.38;;;22.76;76.93
5350;BME280;2697;42.144;24.794;2022-09-06T05:23:20;158692.78;;;23.65;74.53
5350;BME280;2697;42.144;24.794;2022-09-06T05:25:46;159126.47;;;25.30;63.94
5350;BME280;2697;42.144;24.794;2022-09-06T05:28:12;159241.00;;;25.74;60.08
5350;BME280;2697;42.144;24.794;2022-09-06T05:30:37;159382.13;;;26.28;58.06
5350;BME280;2697;42.144;24.794;2022-09-06T05:33:03;159145.09;;;25.38;59.90
5350;BME280;2697;42.144;24.794;2022-09-06T05:35:28;159169.06;;;25.47;57.19
5350;BME280;2697;42.144;24.794;2022-09-06T05:37:53;159523.38;;;26.82;53.57
5350;BME280;2697;42.144;24.794;2022-09-06T05:40:19;159359.50;;;26.20;54.87
5350;BME280;2697;42.144;24.794;2022-09-06T05:42:44;159259.66;;;25.81;54.98
5350;BME280;2697;42.144;24.794;2022-09-06T05:45:09;159316.88;;;26.03;55.05
5350;BME280;2697;42.144;24.794;2022-09-06T05:47:35;159288.94;;;25.93;54.86
5350;BME280;2697;42.144;24.794;2022-09-06T05:50:01;159523.38;;;26.82;51.68
5350;BME280;2697;42.144;24.794;2022-09-06T05:52:27;159688.63;;;27.45;49.94
5350;BME280;2697;42.144;24.794;2022-09-06T05:54:53;159582.03;;;27.05;49.68
5350;BME280;2697;42.144;24.794;2022-09-06T05:57:18;159838.00;;;28.02;47.41
5350;BME280;2697;42.144;24.794;2022-09-06T05:59:44;159690.00;;;27.46;49.88
5350;BME280;2697;42.144;24.794;2022-09-06T06:02:09;159631.34;;;27.23;48.73
5350;BME280;2697;42.144;24.794;2022-09-06T06:04:35;159664.69;;;27.36;49.18
5350;BME280;2697;42.144;24.794;2022-09-06T06:07:00;159811.34;;;27.92;47.59
5350;BME280;2697;42.144;24.794;2022-09-06T06:09:26;159896.66;;;28.25;46.45
5350;BME280;2697;42.144;24.794;2022-09-06T06:11:51;160024.69;;;28.74;45.29
5350;BME280;2697;42.144;24.794;2022-09-06T06:14:17;159530.03;;;26.85;48.38
5350;BME280;2697;42.144;24.794;2022-09-06T06:16:42;159598.03;;;27.11;48.74
5350;BME280;2697;42.144;24.794;2022-09-06T06:19:07;159766.03;;;27.75;47.53
5350;BME280;2697;42.144;24.794;2022-09-06T06:21:33;159632.66;;;27.24;48.11
5350;BME280;2697;42.144;24.794;2022-09-06T06:24:01;159435.44;;;26.49;50.39
5350;BME280;2697;42.144;24.794;2022-09-06T06:26:28;159470.13;;;26.62;49.67
5350;BME280;2697;42.144;24.794;2022-09-06T06:28:54;159494.09;;;26.71;49.67
5350;BME280;2697;42.144;24.794;2022-09-06T06:31:22;159442.09;;;26.51;49.60
5350;BME280;2697;42.144;24.794;2022-09-06T06:33:48;159315.56;;;26.03;50.78
5350;BME280;2697;42.144;24.794;2022-09-06T06:38:41;159276.97;;;25.88;51.26
5350;BME280;2697;42.144;24.794;2022-09-06T06:41:13;159093.22;;;25.18;53.41
5350;BME280;2697;42.144;24.794;2022-09-06T06:43:39;158732.63;;;23.80;58.35
5350;BME280;2697;42.144;24.794;2022-09-06T06:46:08;158408.25;;;22.56;65.59
5350;BME280;2697;42.144;24.794;2022-09-06T06:48:35;158279.38;;;22.06;68.87
5350;BME280;2697;42.144;24.794;2022-09-06T06:51:01;158134.66;;;21.51;72.32
5350;BME280;2697;42.144;24.794;2022-09-06T06:53:27;157956.72;;;20.83;76.99
5350;BME280;2697;42.144;24.794;2022-09-06T06:55:53;157901.03;;;20.61;78.75
5350;BME280;2697;42.144;24.794;2022-09-06T06:58:19;157878.47;;;20.53;80.03
5350;BME280;2697;42.144;24.794;2022-09-06T07:00:44;157975.31;;;20.90;78.03
5350;BME280;2697;42.144;24.794;2022-09-06T07:03:10;157951.44;;;20.81;79.04
5350;BME280;2697;42.144;24.794;2022-09-06T07:05:37;157930.19;;;20.72;79.70
5350;BME280;2697;42.144;24.794;2022-09-06T07:08:04;157963.41;;;20.85;79.25
5350;BME280;2697;42.144;24.794;2022-09-06T07:10:30;157997.88;;;20.98;78.31
5350;BME280;2697;42.144;24.794;2022-09-06T07:12:56;158041.69;;;21.15;77.63
5350;BME280;2697;42.144;24.794;2022-09-06T07:15:21;158001.84;;;21.00;77.93
5350;BME280;2697;42.144;24.794;2022-09-06T07:17:47;158027.06;;;21.10;77.13
5350;BME280;2697;42.144;24.794;2022-09-06T07:20:12;157927.56;;;20.71;77.80
5350;BME280;2697;42.144;24.794;2022-09-06T07:22:38;157997.88;;;20.98;78.74
5350;BME280;2697;42.144;24.794;2022-09-06T07:25:04;158070.94;;;21.26;76.32
5350;BME280;2697;42.144;24.794;2022-09-06T07:27:30;158039.03;;;21.14;76.13
5350;BME280;2697;42.144;24.794;2022-09-06T07:29:55;158050.97;;;21.19;76.56
5350;BME280;2697;42.144;24.794;2022-09-06T07:32:21;158005.84;;;21.01;76.57
5350;BME280;2697;42.144;24.794;2022-09-06T07:34:47;158062.94;;;21.23;75.91
5350;BME280;2697;42.144;24.794;2022-09-06T07:37:12;158130.63;;;21.49;74.18
5350;BME280;2697;42.144;24.794;2022-09-06T07:39:38;158128.00;;;21.48;74.22
5350;BME280;2697;42.144;24.794;2022-09-06T07:42:04;158143.94;;;21.54;74.18
5350;BME280;2697;42.144;24.794;2022-09-06T07:44:30;158118.72;;;21.45;73.50
5350;BME280;2697;42.144;24.794;2022-09-06T07:46:55;158209.00;;;21.79;73.35
5350;BME280;2697;42.144;24.794;2022-09-06T07:49:21;158205.03;;;21.78;73.11
5350;BME280;2697;42.144;24.794;2022-09-06T07:51:47;158194.38;;;21.74;73.31
5350;BME280;2697;42.144;24.794;2022-09-06T07:54:12;158142.59;;;21.54;73.74
5350;BME280;2697;42.144;24.794;2022-09-06T07:56:38;158177.09;;;21.67;72.93
5350;BME280;2697;42.144;24.794;2022-09-06T07:59:04;158142.59;;;21.54;74.08
5350;BME280;2697;42.144;24.794;2022-09-06T08:01:33;158181.13;;;21.69;73.64
5350;BME280;2697;42.144;24.794;2022-09-06T08:04:05;158169.16;;;21.64;73.19
5350;BME280;2697;42.144;24.794;2022-09-06T08:06:33;158197.03;;;21.75;72.87
5350;BME280;2697;42.144;24.794;2022-09-06T08:08:59;158179.75;;;21.68;73.20
5350;BME280;2697;42.144;24.794;2022-09-06T08:11:30;158264.75;;;22.01;71.72
5350;BME280;2697;42.144;24.794;2022-09-06T08:13:57;158256.81;;;21.98;71.28
5350;BME280;2697;42.144;24.794;2022-09-06T08:16:24;158290.03;;;22.10;71.81
5350;BME280;2697;42.144;24.794;2022-09-06T08:18:53;158283.41;;;22.08;70.72
5350;BME280;2697;42.144;24.794;2022-09-06T08:21:20;158316.59;;;22.21;69.63
5350;BME280;2697;42.144;24.794;2022-09-06T08:23:56;158306.00;;;22.16;69.26
5350;BME280;2697;42.144;24.794;2022-09-06T08:26:23;158236.88;;;21.90;69.64
5350;BME280;2697;42.144;24.794;2022-09-06T08:29:07;158272.72;;;22.04;70.27
5350;BME280;2697;42.144;24.794;2022-09-06T08:31:35;158278.06;;;22.06;69.08
5350;BME280;2697;42.144;24.794;2022-09-06T08:34:01;158321.91;;;22.23;67.96
5350;BME280;2697;42.144;24.794;2022-09-06T08:36:27;158287.38;;;22.09;69.49
5350;BME280;2697;42.144;24.794;2022-09-06T08:38:57;158337.84;;;22.29;68.64
5350;BME280;2697;42.144;24.794;2022-09-06T08:41:31;158414.88;;;22.58;66.65
5350;BME280;2697;42.144;24.794;2022-09-06T08:44:09;158428.19;;;22.63;65.79
5350;BME280;2697;42.144;24.794;2022-09-06T08:46:41;158405.59;;;22.55;66.08
5350;BME280;2697;42.144;24.794;2022-09-06T08:49:11;158413.56;;;22.58;65.86
5350;BME280;2697;42.144;24.794;2022-09-06T08:54:20;158521.25;;;22.99;64.97
5350;BME280;2697;42.144;24.794;2022-09-06T08:57:31;158586.34;;;23.24;63.81
5350;BME280;2697;42.144;24.794;2022-09-06T08:59:59;158472.06;;;22.80;64.77
5350;BME280;2697;42.144;24.794;2022-09-06T09:02:26;158503.97;;;22.92;65.27
5350;BME280;2697;42.144;24.794;2022-09-06T09:04:56;158530.53;;;23.02;64.73
5350;BME280;2697;42.144;24.794;2022-09-06T09:07:43;158595.69;;;23.27;63.81
5350;BME280;2697;42.144;24.794;2022-09-06T09:10:16;158534.53;;;23.04;63.98
5350;BME280;2697;42.144;24.794;2022-09-06T09:12:47;158591.66;;;23.26;63.21
5350;BME280;2697;42.144;24.794;2022-09-06T09:15:15;158670.13;;;23.56;61.88
5350;BME280;2697;42.144;24.794;2022-09-06T09:17:41;158733.94;;;23.80;60.73
5350;BME280;2697;42.144;24.794;2022-09-06T09:20:08;158740.63;;;23.83;61.54
5350;BME280;2697;42.144;24.794;2022-09-06T09:22:35;158711.34;;;23.72;60.58
5350;BME280;2697;42.144;24.794;2022-09-06T09:25:03;158749.94;;;23.86;59.87
5350;BME280;2697;42.144;24.794;2022-09-06T09:27:31;158751.25;;;23.87;59.77
5350;BME280;2697;42.144;24.794;2022-09-06T09:29:59;158777.84;;;23.97;58.99
5350;BME280;2697;42.144;24.794;2022-09-06T09:35:21;158741.97;;;23.83;58.48
5350;BME280;2697;42.144;24.794;2022-09-06T09:37:48;158707.38;;;23.70;57.71
5350;BME280;2697;42.144;24.794;2022-09-06T09:42:48;158732.63;;;23.80;56.63
5350;BME280;2697;42.144;24.794;2022-09-06T09:47:45;158736.59;;;23.81;58.02
5350;BME280;2697;42.144;24.794;2022-09-06T09:52:53;158821.72;;;24.14;56.53
5350;BME280;2697;42.144;24.794;2022-09-06T09:55:24;158820.41;;;24.13;55.46
5350;BME280;2697;42.144;24.794;2022-09-06T09:57:50;158933.47;;;24.57;54.53
5350;BME280;2697;42.144;24.794;2022-09-06T10:00:35;158962.78;;;24.68;52.80
5350;BME280;2697;42.144;24.794;2022-09-06T10:03:17;158985.41;;;24.77;53.42
5350;BME280;2697;42.144;24.794;2022-09-06T10:05:54;159022.63;;;24.91;52.63
5350;BME280;2697;42.144;24.794;2022-09-06T10:08:22;159012.00;;;24.87;53.03
5350;BME280;2697;42.144;24.794;2022-09-06T10:10:50;158940.16;;;24.59;53.94
5350;BME280;2697;42.144;24.794;2022-09-06T10:15:46;159019.97;;;24.90;52.38
5350;BME280;2697;42.144;24.794;2022-09-06T10:20:58;158962.78;;;24.68;53.42
5350;BME280;2697;42.144;24.794;2022-09-06T10:28:40;159075.88;;;25.11;51.06
5350;BME280;2697;42.144;24.794;2022-09-06T10:31:31;159062.63;;;25.06;51.10
5350;BME280;2697;42.144;24.794;2022-09-06T10:34:14;159030.59;;;24.94;51.45
5350;BME280;2697;42.144;24.794;2022-09-06T10:36:57;159049.22;;;25.01;51.88
5350;BME280;2697;42.144;24.794;2022-09-06T10:39:48;159101.19;;;25.21;51.12
5350;BME280;2697;42.144;24.794;2022-09-06T10:42:51;159119.81;;;25.28;50.33
5350;BME280;2697;42.144;24.794;2022-09-06T10:48:39;159211.66;;;25.63;49.01
5350;BME280;2697;42.144;24.794;2022-09-06T10:56:39;159213.00;;;25.64;48.97
5350;BME280;2697;42.144;24.794;2022-09-06T10:59:40;159262.31;;;25.82;48.75
5350;BME280;2697;42.144;24.794;2022-09-06T11:04:51;159267.63;;;25.84;48.67
5350;BME280;2697;42.144;24.794;2022-09-06T11:07:26;159167.72;;;25.46;48.76
5350;BME280;2697;42.144;24.794;2022-09-06T11:15:18;159283.59;;;25.91;46.82
5350;BME280;2697;42.144;24.794;2022-09-06T11:18:04;159288.94;;;25.93;46.43
5350;BME280;2697;42.144;24.794;2022-09-06T11:20:40;159348.88;;;26.16;45.83
5350;BME280;2697;42.144;24.794;2022-09-06T11:31:05;159407.50;;;26.38;43.60
5350;BME280;2697;42.144;24.794;2022-09-06T11:33:34;159442.09;;;26.51;44.24
5350;BME280;2697;42.144;24.794;2022-09-06T11:36:37;159379.47;;;26.27;45.92
5350;BME280;2697;42.144;24.794;2022-09-06T11:39:06;159352.84;;;26.17;45.58
5350;BME280;2697;42.144;24.794;2022-09-06T11:41:41;159312.88;;;26.02;45.92
5350;BME280;2697;42.144;24.794;2022-09-06T11:44:08;159233.03;;;25.71;45.73
5350;BME280;2697;42.144;24.794;2022-09-06T11:49:28;159347.50;;;26.15;45.55
5350;BME280;2697;42.144;24.794;2022-09-06T11:51:54;159350.19;;;26.16;45.67
5350;BME280;2697;42.144;24.794;2022-09-06T11:54:28;159407.50;;;26.38;46.79
5350;BME280;2697;42.144;24.794;2022-09-06T11:57:07;159476.75;;;26.64;46.38
5350;BME280;2697;42.144;24.794;2022-09-06T12:07:33;159590.00;;;27.08;44.62
5350;BME280;2697;42.144;24.794;2022-09-06T12:12:56;159599.38;;;27.11;43.18
5350;BME280;2697;42.144;24.794;2022-09-06T12:15:28;159530.03;;;26.85;44.43
5350;BME280;2697;42.144;24.794;2022-09-06T12:17:54;159598.03;;;27.11;43.04
5350;BME280;2697;42.144;24.794;2022-09-06T12:28:49;159459.44;;;26.58;43.99
5350;BME280;2697;42.144;24.794;2022-09-06T12:31:36;159540.66;;;26.89;42.72
5350;BME280;2697;42.144;24.794;2022-09-06T12:34:24;159555.34;;;26.94;42.66
5350;BME280;2697;42.144;24.794;2022-09-06T12:39:19;159530.03;;;26.85;43.60
5350;BME280;2697;42.144;24.794;2022-09-06T12:41:51;159436.78;;;26.49;44.28
5350;BME280;2697;42.144;24.794;2022-09-06T12:44:27;159478.09;;;26.65;44.33
5350;BME280;2697;42.144;24.794;2022-09-06T12:46:58;159511.38;;;26.78;44.20
5350;BME280;2697;42.144;24.794;2022-09-06T12:49:26;159568.69;;;26.99;44.00
5350;BME280;2697;42.144;24.794;2022-09-06T12:52:04;159657.97;;;27.34;42.69
5350;BME280;2697;42.144;24.794;2022-09-06T12:54:30;159654.00;;;27.32;42.70
5350;BME280;2697;42.144;24.794;2022-09-06T12:57:12;159655.31;;;27.33;42.94
5350;BME280;2697;42.144;24.794;2022-09-06T12:59:46;159674.00;;;27.40;42.60
5350;BME280;2697;42.144;24.794;2022-09-06T13:02:16;159651.34;;;27.31;42.50
5350;BME280;2697;42.144;24.794;2022-09-06T13:04:51;159584.69;;;27.06;43.02
5350;BME280;2697;42.144;24.794;2022-09-06T13:07:21;159622.03;;;27.20;43.45
5350;BME280;2697;42.144;24.794;2022-09-06T13:09:49;159660.63;;;27.35;43.58
5350;BME280;2697;42.144;24.794;2022-09-06T13:14:54;159570.03;;;27.00;44.16
5350;BME280;2697;42.144;24.794;2022-09-06T13:17:23;159666.00;;;27.37;44.02
5350;BME280;2697;42.144;24.794;2022-09-06T13:19:48;159670.00;;;27.38;43.91
5350;BME280;2697;42.144;24.794;2022-09-06T13:25:03;159635.31;;;27.25;44.41
5350;BME280;2697;42.144;24.794;2022-09-06T13:27:33;159552.69;;;26.93;43.98
5350;BME280;2697;42.144;24.794;2022-09-06T13:32:27;159452.78;;;26.55;43.57
5350;BME280;2697;42.144;24.794;2022-09-06T13:34:54;159440.78;;;26.51;43.85
5350;BME280;2697;42.144;24.794;2022-09-06T13:37:23;159418.13;;;26.42;44.97
5350;BME280;2697;42.144;24.794;2022-09-06T13:39:50;159411.47;;;26.39;45.20
5350;BME280;2697;42.144;24.794;2022-09-06T13:42:30;159443.44;;;26.52;44.08
5350;BME280;2697;42.144;24.794;2022-09-06T13:44:57;159467.41;;;26.61;44.52
5350;BME280;2697;42.144;24.794;2022-09-06T13:47:27;159451.47;;;26.55;44.16
5350;BME280;2697;42.144;24.794;2022-09-06T13:49:52;159448.78;;;26.54;44.29
5350;BME280;2697;42.144;24.794;2022-09-06T13:52:19;159472.78;;;26.63;43.88
5350;BME280;2697;42.144;24.794;2022-09-06T13:54:45;159486.06;;;26.68;44.06
5350;BME280;2697;42.144;24.794;2022-09-06T13:57:12;159462.09;;;26.59;44.47
5350;BME280;2697;42.144;24.794;2022-09-06T13:59:37;159434.13;;;26.48;44.13
5350;BME280;2697;42.144;24.794;2022-09-06T14:02:08;159427.47;;;26.46;43.82
5350;BME280;2697;42.144;24.794;2022-09-06T14:04:36;159392.78;;;26.32;44.05
5350;BME280;2697;42.144;24.794;2022-09-06T14:07:03;159392.78;;;26.32;44.29
5350;BME280;2697;42.144;24.794;2022-09-06T14:09:28;159371.47;;;26.24;43.90
5350;BME280;2697;42.144;24.794;2022-09-06T14:11:54;159427.47;;;26.46;43.77
5350;BME280;2697;42.144;24.794;2022-09-06T14:14:20;159428.81;;;26.46;43.32
5350;BME280;2697;42.144;24.794;2022-09-06T14:16:45;159403.44;;;26.36;43.86
5350;BME280;2697;42.144;24.794;2022-09-06T14:19:14;159427.47;;;26.46;43.73
5350;BME280;2697;42.144;24.794;2022-09-06T14:21:39;159407.50;;;26.38;43.40
5350;BME280;2697;42.144;24.794;2022-09-06T14:24:06;159483.41;;;26.67;43.03
5350;BME280;2697;42.144;24.794;2022-09-06T14:26:31;159446.13;;;26.53;42.81
5350;BME280;2697;42.144;24.794;2022-09-06T14:28:57;159476.75;;;26.64;42.16
5350;BME280;2697;42.144;24.794;2022-09-06T14:31:25;159500.75;;;26.74;42.45
5350;BME280;2697;42.144;24.794;2022-09-06T14:33:52;159498.06;;;26.73;42.95
5350;BME280;2697;42.144;24.794;2022-09-06T14:36:20;159496.75;;;26.72;41.89
5350;BME280;2697;42.144;24.794;2022-09-06T14:38:47;159482.06;;;26.66;43.00
5350;BME280;2697;42.144;24.794;2022-09-06T14:41:14;159514.03;;;26.79;42.84
5350;BME280;2697;42.144;24.794;2022-09-06T14:43:42;159486.06;;;26.68;43.08
5350;BME280;2697;42.144;24.794;2022-09-06T14:46:10;159502.06;;;26.74;43.00
5350;BME280;2697;42.144;24.794;2022-09-06T14:48:36;159535.34;;;26.87;42.96
5350;BME280;2697;42.144;24.794;2022-09-06T14:51:24;159512.69;;;26.78;42.72
5350;BME280;2697;42.144;24.794;2022-09-06T14:53:53;159451.47;;;26.55;43.01
5350;BME280;2697;42.144;24.794;2022-09-06T14:56:21;159471.44;;;26.62;42.79
5350;BME280;2697;42.144;24.794;2022-09-06T14:58:47;159434.13;;;26.48;43.38
5350;BME280;2697;42.144;24.794;2022-09-06T15:01:21;159443.44;;;26.52;43.65
5350;BME280;2697;42.144;24.794;2022-09-06T15:03:49;159454.13;;;26.56;42.83
5350;BME280;2697;42.144;24.794;2022-09-06T15:06:17;159432.78;;;26.48;43.34